»·PEaware :: SWA4821 KSAN-KSFO

SWA4821 :: KSAN-KSFO

FLIGHT INFORMATION

Flight Status: Arrived
Operator:
Southwest Airlines
More flights by this operator :: More flights under this callsign
Pilot: Luke O. (6875)
Aircraft: BOEING 737-800
(B738)
More flights by this aircraft type
Origin: KSAN San Diego Intl-Lindbergh
United States
Destination: KSFO San Francisco Intl
United States
More flights between these airports :: More routes between these airports
Route: PADRZ2 IKAYE RIZIN SPLNT STOKD SERFR SERFR3
File this flight plan on PilotEdge
Remarks:
Altitude:
(Current/Filed)
40,000ft
Speed:
(Current/Filed)
500kts
Departed: 29-Jul-18 07:21 PM
Arrived: 29-Jul-18 08:23 PM
Distance/Time
Traveled:
388nm/1:02
Distance/Time
To Go:
Arrived

Flight Plot

Page will automatically refresh every two minutes.

Flight plan parsing failed; only flown route is shown


Map Options




Map Legend


Flown Route
Filed Route
Departure Airport
Arrival Airport
Navaid (VOR, NDB)
Fix

Horizontal Profiles

Position Reports

Time Latitude Longitude Heading Altitude Ground
Speed
29-Jul-18 18:57 32.732766 -117.197061 134 23ft 0kts
29-Jul-18 18:58 32.732766 -117.197061 134 23ft 0kts
29-Jul-18 18:59 32.732766 -117.197061 134 23ft 0kts
29-Jul-18 19:00 32.732766 -117.197061 134 23ft 0kts
29-Jul-18 19:01 32.732766 -117.197061 134 23ft 0kts
29-Jul-18 19:02 32.732766 -117.197061 134 23ft 0kts
29-Jul-18 19:03 32.732766 -117.197061 134 23ft 0kts
29-Jul-18 19:04 32.732766 -117.197061 134 23ft 0kts
29-Jul-18 19:05 32.732766 -117.197061 134 23ft 0kts
29-Jul-18 19:06 32.732766 -117.197061 134 23ft 0kts
29-Jul-18 19:07 32.733235 -117.197222 198 23ft 2kts
29-Jul-18 19:08 32.733559 -117.197087 199 23ft 0kts
29-Jul-18 19:09 32.733559 -117.197087 199 23ft 0kts
29-Jul-18 19:10 32.733559 -117.197087 199 23ft 0kts
29-Jul-18 19:11 32.733559 -117.197087 199 23ft 0kts
29-Jul-18 19:12 32.733559 -117.197087 199 23ft 8kts
29-Jul-18 19:13 32.733559 -117.197087 199 23ft 0kts
29-Jul-18 19:14 32.733941 -117.195492 104 23ft 13kts
29-Jul-18 19:15 32.732776 -117.190737 106 23ft 12kts
29-Jul-18 19:16 32.731432 -117.185144 105 23ft 15kts
29-Jul-18 19:17 32.730031 -117.179316 105 23ft 14kts
29-Jul-18 19:18 32.729504 -117.177145 95 23ft 0kts
29-Jul-18 19:19 32.729504 -117.177144 95 23ft 0kts
29-Jul-18 19:20 32.729503 -117.177142 95 23ft 0kts
29-Jul-18 19:21 32.729722 -117.176103 62 23ft 21kts
29-Jul-18 19:22 32.738569 -117.209283 288 841ft 177kts
29-Jul-18 19:23 32.764490 -117.260229 305 2462ft 220kts
29-Jul-18 19:24 32.806076 -117.328692 306 4963ft 278kts
29-Jul-18 19:25 32.854728 -117.403740 307 8259ft 295kts
29-Jul-18 19:26 32.906128 -117.483631 308 11065ft 321kts
29-Jul-18 19:27 32.965351 -117.575705 309 13014ft 366kts
29-Jul-18 19:28 33.028517 -117.674454 308 15600ft 382kts
29-Jul-18 19:29 33.101748 -117.768746 321 17949ft 395kts
29-Jul-18 19:30 33.187149 -117.855035 320 20085ft 410kts
29-Jul-18 19:31 33.270517 -117.951916 314 21995ft 424kts
29-Jul-18 19:32 33.354508 -118.053432 314 23017ft 432kts
29-Jul-18 19:33 33.439958 -118.156346 314 24564ft 440kts
29-Jul-18 19:34 33.527724 -118.261512 314 26017ft 450kts
29-Jul-18 19:35 33.616843 -118.368871 313 27356ft 459kts
29-Jul-18 19:36 33.707450 -118.478437 313 28584ft 467kts
29-Jul-18 19:37 33.799565 -118.590205 312 29697ft 474kts
29-Jul-18 19:38 33.890759 -118.701206 311 32153ft 447kts
29-Jul-18 19:39 33.978733 -118.808374 311 33349ft 455kts
29-Jul-18 19:40 34.068029 -118.917931 311 34472ft 460kts
29-Jul-18 19:41 34.154561 -119.032481 301 35379ft 463kts
29-Jul-18 19:42 34.223368 -119.165582 297 36013ft 469kts
29-Jul-18 19:43 34.291350 -119.297748 297 36024ft 461kts
29-Jul-18 19:44 34.359132 -119.430432 297 36032ft 462kts
29-Jul-18 19:45 34.432436 -119.558910 309 36025ft 469kts
29-Jul-18 19:46 34.523908 -119.671652 310 36016ft 470kts
29-Jul-18 19:47 34.615401 -119.784531 310 36015ft 469kts
29-Jul-18 19:48 34.707083 -119.897727 310 36018ft 469kts
29-Jul-18 19:49 34.798404 -120.010976 310 36025ft 468kts
29-Jul-18 19:50 34.890159 -120.125087 310 36041ft 473kts
29-Jul-18 19:51 34.981938 -120.239874 310 36042ft 471kts
29-Jul-18 19:52 35.073221 -120.354622 309 36042ft 472kts
29-Jul-18 19:53 35.168802 -120.464429 313 36036ft 473kts
29-Jul-18 19:54 35.266341 -120.573168 313 36030ft 472kts
29-Jul-18 19:55 35.363081 -120.681854 313 36026ft 472kts
29-Jul-18 19:56 35.459545 -120.791056 312 36016ft 473kts
29-Jul-18 19:57 35.562503 -120.892807 319 36010ft 476kts
29-Jul-18 19:58 35.667269 -120.989299 319 34308ft 464kts
29-Jul-18 19:59 35.768820 -121.083850 319 32493ft 451kts
29-Jul-18 20:00 35.867623 -121.175767 319 30769ft 438kts
29-Jul-18 20:01 35.962959 -121.265292 319 29130ft 425kts
29-Jul-18 20:02 36.055775 -121.352803 319 27503ft 413kts
29-Jul-18 20:03 36.150915 -121.430033 326 25909ft 404kts
29-Jul-18 20:04 36.244451 -121.502238 326 24353ft 394kts
29-Jul-18 20:05 36.336613 -121.574150 326 22792ft 384kts
29-Jul-18 20:06 36.425606 -121.644177 326 21288ft 375kts
29-Jul-18 20:07 36.512590 -121.712698 326 19895ft 363kts
29-Jul-18 20:08 36.596861 -121.779244 326 18508ft 354kts
29-Jul-18 20:09 36.679048 -121.844496 326 17118ft 346kts
29-Jul-18 20:10 36.762829 -121.900438 343 15767ft 339kts
29-Jul-18 20:11 36.854086 -121.925770 347 14465ft 332kts
29-Jul-18 20:12 36.928528 -121.946430 347 13387ft 326kts
29-Jul-18 20:13 37.025700 -121.981093 342 12549ft 299kts
29-Jul-18 20:14 37.104694 -122.012427 342 11418ft 295kts
29-Jul-18 20:15 37.181830 -122.042769 341 10386ft 286kts
29-Jul-18 20:16 37.256855 -122.072230 341 9300ft 279kts
29-Jul-18 20:17 37.330428 -122.101186 341 8192ft 273kts
29-Jul-18 20:18 37.390303 -122.124178 343 7220ft 270kts
29-Jul-18 20:19 37.461304 -122.148347 343 5741ft 257kts
29-Jul-18 20:20 37.535141 -122.185459 311 3369ft 258kts
29-Jul-18 20:21 37.570336 -122.259784 297 1728ft 224kts
29-Jul-18 20:22 37.592914 -122.313601 296 807ft 192kts
29-Jul-18 20:23 37.613631 -122.362821 294 54ft 132kts
29-Jul-18 20:24 37.619728 -122.379379 235 21ft 3kts
29-Jul-18 20:25 37.618534 -122.381136 216 21ft 0kts

Navigation Log

Ident Type
Flight plan parsing failed, navigation log unavailable